createdAt,value
2019-03-04T00:01:02.660Z,77.63
2019-03-04T00:03:31.906Z,77.48
2019-03-04T00:06:01.146Z,77.29
2019-03-04T00:08:32.920Z,77.22
2019-03-04T00:11:01.989Z,76.88
2019-03-04T00:13:31.206Z,76.86
2019-03-04T00:16:00.447Z,76.99
2019-03-04T00:18:29.671Z,77.14
2019-03-04T00:20:58.936Z,77.12
2019-03-04T00:23:29.173Z,77.14
2019-03-04T00:25:58.446Z,77.13
2019-03-04T00:28:27.683Z,76.93
2019-03-04T00:30:57.222Z,76.56
2019-03-04T00:33:26.528Z,76.24
2019-03-04T00:35:55.784Z,75.94
2019-03-04T00:38:25.036Z,75.79
2019-03-04T00:40:54.326Z,75.70
2019-03-04T00:43:23.551Z,75.90
2019-03-04T00:45:52.833Z,76.33
2019-03-04T00:48:22.059Z,76.85
2019-03-04T00:50:51.344Z,77.05
2019-03-04T00:53:20.578Z,77.05
2019-03-04T00:55:49.817Z,76.84
2019-03-04T00:58:19.064Z,76.81
2019-03-04T01:00:48.288Z,77.07
2019-03-04T01:03:17.513Z,77.16
2019-03-04T01:05:46.768Z,77.19
2019-03-04T01:08:16.014Z,77.65
2019-03-04T01:10:45.273Z,77.81
2019-03-04T01:13:14.492Z,78.23
2019-03-04T01:15:43.755Z,78.16
2019-03-04T01:18:12.996Z,78.45
2019-03-04T01:20:42.270Z,78.87
2019-03-04T01:23:11.518Z,79.07
2019-03-04T01:25:40.778Z,78.96
2019-03-04T01:28:10.009Z,78.81
2019-03-04T01:30:39.249Z,78.76
2019-03-04T01:33:08.459Z,78.28
2019-03-04T01:35:37.815Z,78.06
2019-03-04T01:38:07.421Z,78.03
2019-03-04T01:40:36.663Z,77.91
2019-03-04T01:43:05.893Z,77.68
2019-03-04T01:45:35.169Z,77.44
2019-03-04T01:48:04.422Z,77.13
2019-03-04T01:50:33.671Z,77.25
2019-03-04T01:53:02.925Z,77.05
2019-03-04T01:55:32.184Z,76.68
2019-03-04T01:58:01.429Z,76.21
2019-03-04T02:00:30.893Z,75.88
2019-03-04T02:03:00.213Z,75.43
2019-03-04T02:05:29.462Z,74.90
2019-03-04T02:07:58.684Z,74.87
2019-03-04T02:10:27.942Z,74.61
2019-03-04T02:12:57.188Z,74.55
2019-03-04T02:15:26.403Z,74.73
2019-03-04T02:17:55.933Z,74.39
2019-03-04T02:20:25.550Z,73.98
2019-03-04T02:22:54.817Z,73.68
2019-03-04T02:25:56.883Z,74.00
2019-03-04T02:28:26.100Z,74.21
2019-03-04T02:30:55.361Z,74.10
2019-03-04T02:33:24.595Z,73.91
2019-03-04T02:35:53.835Z,74.04
2019-03-04T02:38:23.084Z,73.79
2019-03-04T02:40:52.345Z,73.70
2019-03-04T02:43:21.608Z,73.81
2019-03-04T02:45:50.818Z,73.80
2019-03-04T02:48:20.083Z,74.48
2019-03-04T02:50:49.305Z,73.96
2019-03-04T02:53:18.999Z,74.07
2019-03-04T02:55:48.246Z,73.95
2019-03-04T02:58:17.490Z,73.85
2019-03-04T03:00:46.740Z,73.29
2019-03-04T03:03:15.999Z,73.49
2019-03-04T03:05:45.388Z,73.36
2019-03-04T03:08:14.640Z,73.07
2019-03-04T03:10:43.921Z,72.42
2019-03-04T03:13:13.206Z,72.14
2019-03-04T03:15:42.434Z,71.88
2019-03-04T03:18:11.673Z,72.14
2019-03-04T03:20:40.914Z,71.80
2019-03-04T03:23:10.189Z,71.87
2019-03-04T03:25:39.452Z,71.71
2019-03-04T03:28:08.712Z,71.81
2019-03-04T03:30:38.858Z,71.89
2019-03-04T03:33:08.121Z,71.99
2019-03-04T03:35:37.517Z,72.13
2019-03-04T03:38:06.992Z,72.41
2019-03-04T03:40:36.220Z,71.99
2019-03-04T03:43:05.564Z,71.92
2019-03-04T03:45:34.812Z,71.60
2019-03-04T03:48:04.061Z,71.01
2019-03-04T03:50:33.277Z,71.02
2019-03-04T03:53:02.535Z,70.92
2019-03-04T03:55:31.808Z,70.80
2019-03-04T03:58:01.036Z,71.04
2019-03-04T04:00:30.278Z,70.68
2019-03-04T04:02:59.513Z,70.49
2019-03-04T04:05:28.728Z,70.51
2019-03-04T04:07:58.345Z,70.28
2019-03-04T04:10:27.591Z,70.53
2019-03-04T04:12:56.845Z,70.66
2019-03-04T04:15:26.057Z,70.64
2019-03-04T04:17:55.301Z,70.71
2019-03-04T04:20:24.541Z,70.80
2019-03-04T04:22:53.839Z,70.77
2019-03-04T04:25:23.078Z,70.77
2019-03-04T04:27:52.357Z,71.07
2019-03-04T04:30:22.704Z,70.91
2019-03-04T04:32:51.947Z,70.67
2019-03-04T04:35:21.166Z,70.92
2019-03-04T04:37:50.406Z,70.48
2019-03-04T04:40:20.628Z,70.39
2019-03-04T04:42:49.872Z,70.59
2019-03-04T04:45:19.308Z,70.67
2019-03-04T04:47:48.572Z,70.92
2019-03-04T04:50:17.824Z,71.33
2019-03-04T04:52:47.129Z,71.48
2019-03-04T04:55:16.366Z,71.39
2019-03-04T04:57:45.594Z,71.45
2019-03-04T05:00:15.486Z,71.47
2019-03-04T05:02:44.731Z,71.34
2019-03-04T05:05:14.105Z,71.24
2019-03-04T05:07:43.393Z,71.10
2019-03-04T05:10:15.527Z,71.04
2019-03-04T05:12:45.562Z,71.06
2019-03-04T05:15:15.193Z,71.12
2019-03-04T05:17:44.450Z,71.17
2019-03-04T05:20:16.315Z,71.37
2019-03-04T05:22:45.561Z,71.39
2019-03-04T05:25:14.816Z,71.52
2019-03-04T05:27:44.158Z,71.29
2019-03-04T05:30:16.291Z,71.31
2019-03-04T05:32:45.504Z,71.08
2019-03-04T05:35:14.791Z,70.81
2019-03-04T05:37:43.999Z,70.46
2019-03-04T05:40:17.633Z,70.11
2019-03-04T05:42:46.851Z,70.03
2019-03-04T05:45:16.411Z,70.10
2019-03-04T05:47:45.639Z,70.11
2019-03-04T05:50:16.676Z,70.36
2019-03-04T05:52:45.892Z,70.42
2019-03-04T05:55:17.583Z,70.50
2019-03-04T05:57:46.801Z,70.78
2019-03-04T06:00:18.746Z,70.95
2019-03-04T06:02:47.984Z,70.72
2019-03-04T06:05:17.444Z,70.80
2019-03-04T06:07:53.845Z,71.09
2019-03-04T06:10:23.145Z,71.07
2019-03-04T06:12:52.393Z,71.34
2019-03-04T06:15:21.952Z,71.53
2019-03-04T06:17:51.779Z,71.47
2019-03-04T06:20:21.971Z,71.69
2019-03-04T06:22:51.251Z,71.78
2019-03-04T06:25:22.806Z,72.00
2019-03-04T06:27:52.395Z,72.11
2019-03-04T06:30:23.194Z,71.82
2019-03-04T06:32:52.447Z,71.81
2019-03-04T06:35:21.688Z,71.57
2019-03-04T06:37:50.934Z,71.76
2019-03-04T06:40:20.665Z,72.25
2019-03-04T06:42:49.911Z,72.25
2019-03-04T06:45:20.077Z,72.01
2019-03-04T06:47:49.299Z,72.00
2019-03-04T06:50:47.442Z,71.21
2019-03-04T06:53:23.267Z,70.76
2019-03-04T06:56:24.183Z,70.53
2019-03-04T06:58:58.422Z,69.76
2019-03-04T07:01:33.565Z,69.54
2019-03-04T07:04:22.728Z,68.47
2019-03-04T07:06:51.984Z,68.18
2019-03-04T07:09:21.542Z,65.73
2019-03-04T07:11:54.517Z,64.19
2019-03-04T07:14:24.481Z,62.75
2019-03-04T07:16:54.142Z,60.76
2019-03-04T07:19:27.988Z,55.16
2019-03-04T07:21:57.244Z,49.64
2019-03-04T07:24:26.484Z,47.21
2019-03-04T07:26:56.139Z,49.30
2019-03-04T07:29:25.396Z,52.50
2019-03-04T07:31:54.648Z,47.08
2019-03-04T07:34:23.882Z,43.23
2019-03-04T07:36:54.232Z,41.50
2019-03-04T07:39:23.468Z,40.38
2019-03-04T07:41:54.548Z,36.31
2019-03-04T07:44:23.820Z,35.66
2019-03-04T07:46:53.081Z,38.14
2019-03-04T07:49:25.026Z,36.58
2019-03-04T07:51:54.287Z,37.44
2019-03-04T07:54:23.539Z,38.90
2019-03-04T07:56:52.906Z,39.58
2019-03-04T07:59:23.512Z,40.70
2019-03-04T08:01:52.839Z,39.75
2019-03-04T08:04:22.104Z,42.68
2019-03-04T08:06:51.658Z,44.71
2019-03-04T08:10:36.858Z,45.03
2019-03-04T08:13:12.964Z,41.99
2019-03-04T08:15:48.003Z,46.82
2019-03-04T08:18:17.607Z,46.16
2019-03-04T08:20:46.990Z,49.65
2019-03-04T08:23:16.233Z,49.02
2019-03-04T08:25:45.815Z,47.67
2019-03-04T08:28:16.020Z,46.11
2019-03-04T08:30:45.267Z,44.42
2019-03-04T08:33:16.069Z,41.32
2019-03-04T08:35:45.806Z,43.90
2019-03-04T08:38:15.077Z,41.11
2019-03-04T08:40:44.302Z,40.91
2019-03-04T08:43:13.568Z,37.59
2019-03-04T08:45:42.795Z,34.86
2019-03-04T08:48:12.090Z,32.93
2019-03-04T08:50:41.320Z,35.97
2019-03-04T08:53:10.573Z,36.76
2019-03-04T08:55:39.802Z,37.36
2019-03-04T08:58:09.047Z,37.38
2019-03-04T09:00:38.440Z,36.83
2019-03-04T09:03:07.743Z,34.50
2019-03-04T09:05:36.964Z,34.58
2019-03-04T09:08:06.254Z,31.44
2019-03-04T09:10:35.514Z,31.17
2019-03-04T09:13:05.072Z,29.21
2019-03-04T09:15:34.305Z,29.87
2019-03-04T09:18:03.585Z,31.60
2019-03-04T09:20:32.808Z,28.64
2019-03-04T09:23:02.060Z,26.01
2019-03-04T09:25:43.715Z,24.80
2019-03-04T09:28:12.964Z,24.52
2019-03-04T09:30:42.199Z,23.91
2019-03-04T09:33:11.466Z,24.68
2019-03-04T09:35:41.618Z,26.46
2019-03-04T09:38:11.073Z,28.32
2019-03-04T09:40:40.343Z,24.55
2019-03-04T09:43:09.631Z,21.87
2019-03-04T09:45:39.503Z,21.23
2019-03-04T09:48:08.819Z,21.90
2019-03-04T09:50:40.042Z,21.52
2019-03-04T09:53:09.323Z,22.61
2019-03-04T09:55:38.582Z,22.44
2019-03-04T09:58:07.888Z,23.04
2019-03-04T10:00:47.882Z,24.38
2019-03-04T10:04:00.360Z,26.60
2019-03-04T10:07:03.263Z,26.37
2019-03-04T10:10:00.364Z,27.48
2019-03-04T10:13:10.052Z,26.07
2019-03-04T10:15:56.320Z,27.65
2019-03-04T10:19:24.736Z,30.10
2019-03-04T10:22:25.059Z,30.67
2019-03-04T10:25:41.351Z,31.34
2019-03-04T10:28:49.574Z,33.64
2019-03-04T10:31:47.140Z,37.25
2019-03-04T10:35:09.844Z,36.93
2019-03-04T10:38:22.332Z,39.01
2019-03-04T10:40:59.503Z,38.95
2019-03-04T10:44:03.291Z,40.99
2019-03-04T10:46:52.230Z,40.12
2019-03-04T10:49:21.679Z,37.46
2019-03-04T10:51:50.961Z,37.46
2019-03-04T10:54:20.234Z,37.12
2019-03-04T10:56:49.481Z,34.94
2019-03-04T10:59:18.747Z,34.59
2019-03-04T11:01:50.025Z,36.24
2019-03-04T11:04:19.027Z,37.65
2019-03-04T11:06:48.292Z,37.85
2019-03-04T11:09:17.797Z,38.12
2019-03-04T11:11:47.065Z,38.44
2019-03-04T11:14:16.481Z,33.61
2019-03-04T11:16:46.055Z,34.28
2019-03-04T11:19:15.285Z,34.08
2019-03-04T11:21:44.558Z,33.76
2019-03-04T11:24:13.792Z,34.64
2019-03-04T11:26:43.049Z,35.60
2019-03-04T11:29:13.382Z,37.10
2019-03-04T11:31:43.077Z,36.74
2019-03-04T11:34:12.319Z,38.07
2019-03-04T11:36:41.576Z,38.60
2019-03-04T11:39:56.885Z,37.93
2019-03-04T11:42:26.443Z,38.86
2019-03-04T11:44:55.810Z,38.65
2019-03-04T11:47:26.812Z,39.20
2019-03-04T11:49:56.081Z,39.93
2019-03-04T11:52:25.416Z,39.80
2019-03-04T11:54:54.676Z,40.27
2019-03-04T11:57:23.939Z,40.71
2019-03-04T11:59:53.192Z,41.77
2019-03-04T12:02:24.452Z,42.33
2019-03-04T12:04:53.711Z,45.02
2019-03-04T12:07:22.964Z,47.16
2019-03-04T12:09:52.366Z,47.79
2019-03-04T12:12:23.910Z,47.85
2019-03-04T12:14:53.145Z,46.95
2019-03-04T12:17:24.278Z,44.86
2019-03-04T12:19:53.328Z,46.37
2019-03-04T12:22:22.576Z,46.37
2019-03-04T12:24:51.792Z,44.57
2019-03-04T12:27:21.093Z,46.16
2019-03-04T12:29:50.347Z,46.19
2019-03-04T12:32:24.339Z,45.21
2019-03-04T12:34:53.599Z,46.50
2019-03-04T12:37:22.927Z,47.18
2019-03-04T12:39:52.156Z,47.09
2019-03-04T12:42:22.629Z,47.54
2019-03-04T12:44:51.888Z,46.94
2019-03-04T12:47:21.321Z,46.22
2019-03-04T12:49:50.611Z,46.87
2019-03-04T12:52:23.196Z,45.59
2019-03-04T12:54:51.930Z,45.55
2019-03-04T12:57:21.205Z,43.02
2019-03-04T12:59:51.299Z,42.51
2019-03-04T13:02:22.989Z,41.03
2019-03-04T13:04:52.218Z,41.20
2019-03-04T13:07:21.770Z,39.99
2019-03-04T13:09:51.035Z,40.14
2019-03-04T13:12:20.301Z,39.82
2019-03-04T13:14:49.526Z,38.39
2019-03-04T13:17:19.161Z,38.50
2019-03-04T13:19:49.178Z,39.45
2019-03-04T13:22:19.617Z,40.17
2019-03-04T13:24:48.894Z,38.80
2019-03-04T13:27:23.739Z,38.76
2019-03-04T13:29:49.489Z,38.42
2019-03-04T13:32:18.752Z,38.09
2019-03-04T13:34:48.067Z,39.18
2019-03-04T13:37:17.479Z,39.68
2019-03-04T13:39:47.133Z,40.22
2019-03-04T13:42:16.406Z,39.49
2019-03-04T13:44:45.648Z,38.41
2019-03-04T13:47:14.869Z,38.84
2019-03-04T13:49:44.122Z,39.19
2019-03-04T13:52:13.350Z,40.29
2019-03-04T13:54:43.509Z,39.05
2019-03-04T13:57:12.730Z,40.52
2019-03-04T13:59:42.089Z,41.18
2019-03-04T14:02:18.857Z,40.65
2019-03-04T14:04:48.121Z,38.83
2019-03-04T14:07:17.335Z,39.36
2019-03-04T14:09:46.622Z,38.41
2019-03-04T14:12:15.900Z,37.99
2019-03-04T14:14:45.171Z,39.70
2019-03-04T14:17:14.815Z,38.46
2019-03-04T14:19:44.077Z,39.63
2019-03-04T14:22:13.296Z,37.98
2019-03-04T14:24:42.831Z,38.53
2019-03-04T14:27:12.131Z,38.86
2019-03-04T14:29:42.272Z,38.67
2019-03-04T14:32:11.546Z,39.01
2019-03-04T14:34:40.798Z,38.54
2019-03-04T14:37:10.385Z,40.26
2019-03-04T14:39:44.067Z,40.09
2019-03-04T14:42:14.518Z,40.64
2019-03-04T14:44:43.825Z,42.48
2019-03-04T14:47:13.080Z,42.80
2019-03-04T14:49:45.098Z,42.36
2019-03-04T14:52:13.576Z,42.51
2019-03-04T14:54:42.842Z,43.16
2019-03-04T14:57:12.096Z,43.49
2019-03-04T14:59:41.442Z,44.36
2019-03-04T15:02:10.968Z,43.86
2019-03-04T15:04:40.247Z,44.68
2019-03-04T15:07:09.546Z,44.98
2019-03-04T15:09:38.809Z,45.32
2019-03-04T15:12:08.343Z,44.21
2019-03-04T15:14:37.621Z,45.49
2019-03-04T15:17:06.910Z,45.95
2019-03-04T15:19:36.197Z,45.60
2019-03-04T15:22:05.468Z,45.80
2019-03-04T15:24:35.862Z,46.32
2019-03-04T15:27:05.104Z,45.10
2019-03-04T15:29:34.356Z,46.76
2019-03-04T15:32:03.945Z,46.04
2019-03-04T15:34:33.202Z,46.40
2019-03-04T15:37:03.574Z,46.72
2019-03-04T15:39:34.070Z,46.46
2019-03-04T15:42:03.311Z,46.22
2019-03-04T15:44:32.676Z,47.11
2019-03-04T15:47:01.955Z,46.29
2019-03-04T15:49:31.256Z,47.06
2019-03-04T15:52:00.586Z,47.51
2019-03-04T15:54:29.856Z,47.86
2019-03-04T15:57:03.486Z,48.13
2019-03-04T15:59:32.748Z,48.51
2019-03-04T16:02:10.067Z,48.98
2019-03-04T16:04:39.365Z,49.44
2019-03-04T16:07:09.643Z,49.88
2019-03-04T16:09:40.163Z,50.75
2019-03-04T16:12:12.092Z,51.14
2019-03-04T16:14:41.387Z,51.51
2019-03-04T16:17:11.287Z,52.07
2019-03-04T16:19:42.077Z,52.39
2019-03-04T16:22:11.629Z,52.40
2019-03-04T16:24:40.872Z,52.37
2019-03-04T16:27:14.462Z,52.23
2019-03-04T16:29:43.878Z,52.57
2019-03-04T16:32:13.306Z,52.75
2019-03-04T16:34:42.577Z,52.53
2019-03-04T16:37:11.803Z,52.91
2019-03-04T16:39:41.108Z,52.93
2019-03-04T16:42:10.339Z,53.82
2019-03-04T16:44:40.132Z,53.96
2019-03-04T16:47:10.293Z,54.20
2019-03-04T16:49:39.555Z,53.80
2019-03-04T16:52:09.614Z,54.21
2019-03-04T16:54:39.658Z,54.52
2019-03-04T16:57:13.087Z,54.53
2019-03-04T16:59:43.445Z,54.42
2019-03-04T17:02:12.908Z,54.78
2019-03-04T17:04:42.149Z,54.46
2019-03-04T17:07:11.523Z,55.09
2019-03-04T17:09:41.322Z,55.51
2019-03-04T17:12:10.705Z,54.92
2019-03-04T17:14:40.562Z,54.39
2019-03-04T17:17:13.616Z,55.10
2019-03-04T17:19:42.836Z,55.33
2019-03-04T17:22:12.105Z,55.04
2019-03-04T17:24:41.420Z,55.15
2019-03-04T17:27:10.798Z,54.60
2019-03-04T17:29:40.035Z,54.43
2019-03-04T17:32:09.974Z,54.43
2019-03-04T17:34:39.204Z,54.77
2019-03-04T17:37:08.476Z,54.52
2019-03-04T17:39:37.707Z,54.71
2019-03-04T17:42:07.342Z,54.21
2019-03-04T17:44:36.574Z,54.18
2019-03-04T17:47:05.851Z,54.02
2019-03-04T17:49:35.152Z,54.31
2019-03-04T17:52:04.802Z,54.69
2019-03-04T17:54:34.129Z,54.43
2019-03-04T17:57:03.405Z,54.49
2019-03-04T17:59:32.978Z,53.62
2019-03-04T18:02:02.350Z,54.09
2019-03-04T18:04:31.974Z,54.16
2019-03-04T18:07:01.263Z,54.22
2019-03-04T18:09:30.484Z,53.69
2019-03-04T18:11:59.783Z,54.38
2019-03-04T18:14:30.716Z,54.70
2019-03-04T18:16:59.984Z,54.23
2019-03-04T18:19:29.223Z,54.53
2019-03-04T18:21:59.497Z,54.55
2019-03-04T18:24:31.175Z,54.60
2019-03-04T18:27:22.469Z,55.12
2019-03-04T18:30:21.616Z,55.58
2019-03-04T18:33:27.025Z,55.44
2019-03-04T18:36:37.044Z,55.56
2019-03-04T18:39:34.041Z,55.68
2019-03-04T18:43:03.285Z,56.29
2019-03-04T18:46:05.037Z,56.21
2019-03-04T18:48:56.235Z,56.23
2019-03-04T18:51:25.923Z,55.13
2019-03-04T18:53:59.068Z,55.33
2019-03-04T18:56:28.620Z,54.89
2019-03-04T18:59:05.466Z,55.69
2019-03-04T19:01:34.691Z,57.14
2019-03-04T19:04:04.249Z,59.19
2019-03-04T19:06:33.488Z,60.04
2019-03-04T19:09:05.549Z,61.74
2019-03-04T19:11:36.831Z,62.78
2019-03-04T19:14:06.522Z,62.51
2019-03-04T19:16:35.733Z,62.22
2019-03-04T19:19:06.610Z,62.27
2019-03-04T19:21:37.097Z,62.62
2019-03-04T19:24:06.466Z,62.51
2019-03-04T19:26:37.687Z,62.80
2019-03-04T19:29:07.794Z,63.45
2019-03-04T19:31:38.451Z,63.85
2019-03-04T19:34:07.724Z,64.78
2019-03-04T19:36:36.974Z,65.12
2019-03-04T19:39:08.011Z,66.23
2019-03-04T19:41:37.443Z,67.27
2019-03-04T19:44:06.694Z,68.13
2019-03-04T19:46:35.942Z,68.69
2019-03-04T19:49:06.151Z,69.55
2019-03-04T19:51:35.440Z,70.79
2019-03-04T19:54:05.016Z,71.67
2019-03-04T19:56:34.253Z,72.12
2019-03-04T19:59:03.487Z,72.56
2019-03-04T20:01:32.994Z,73.13
2019-03-04T20:04:02.561Z,73.55
2019-03-04T20:06:31.779Z,73.77
2019-03-04T20:09:01.378Z,75.20
2019-03-04T20:11:31.080Z,74.75
2019-03-04T20:14:00.362Z,75.09
2019-03-04T20:16:29.571Z,75.33
2019-03-04T20:18:58.806Z,75.33
2019-03-04T20:21:28.031Z,75.75
2019-03-04T20:23:57.325Z,76.28
2019-03-04T20:26:27.109Z,75.93
2019-03-04T20:28:56.348Z,75.51
2019-03-04T20:31:25.594Z,75.12
2019-03-04T20:33:58.620Z,73.53
2019-03-04T20:36:29.313Z,71.87
2019-03-04T20:38:59.573Z,70.65
2019-03-04T20:41:28.781Z,67.99
2019-03-04T20:43:58.288Z,67.49
2019-03-04T20:46:27.887Z,65.70
2019-03-04T20:48:57.095Z,64.87
2019-03-04T20:51:26.372Z,64.37
2019-03-04T20:53:55.597Z,64.80
2019-03-04T20:56:24.855Z,65.33
2019-03-04T20:58:56.809Z,65.29
2019-03-04T21:01:28.768Z,64.89
2019-03-04T21:03:58.408Z,64.97
2019-03-04T21:06:27.752Z,65.28
2019-03-04T21:09:06.507Z,65.96
2019-03-04T21:11:36.026Z,66.10
2019-03-04T21:14:05.447Z,66.65
2019-03-04T21:16:34.687Z,66.57
2019-03-04T21:19:04.590Z,66.92
2019-03-04T21:21:33.889Z,67.34
2019-03-04T21:24:04.756Z,67.57
2019-03-04T21:26:43.525Z,68.15
2019-03-04T21:29:46.866Z,68.60
2019-03-04T21:32:55.144Z,69.07
2019-03-04T21:35:51.709Z,69.40
2019-03-04T21:38:24.407Z,69.78
2019-03-04T21:41:03.329Z,69.86
2019-03-04T21:43:40.414Z,69.90
2019-03-04T21:46:46.987Z,70.09
2019-03-04T21:49:17.392Z,70.59
2019-03-04T21:52:19.513Z,70.59
2019-03-04T21:54:40.796Z,70.93
2019-03-04T21:57:23.595Z,70.61
2019-03-04T21:59:54.024Z,70.72
2019-03-04T22:02:56.310Z,70.74
2019-03-04T22:05:25.737Z,70.92
2019-03-04T22:07:54.992Z,71.32
2019-03-04T22:10:24.331Z,71.20
2019-03-04T22:12:57.412Z,71.32
2019-03-04T22:15:27.840Z,71.22
2019-03-04T22:17:57.532Z,71.53
2019-03-04T22:20:27.061Z,71.58
2019-03-04T22:22:57.559Z,71.48
2019-03-04T22:25:26.766Z,71.50
2019-03-04T22:27:56.049Z,71.15
2019-03-04T22:30:25.310Z,70.91
2019-03-04T22:32:54.577Z,71.27
2019-03-04T22:35:23.803Z,71.12
2019-03-04T22:37:55.825Z,70.52
2019-03-04T22:40:25.586Z,69.70
2019-03-04T22:42:54.830Z,69.36
2019-03-04T22:45:24.078Z,69.86
2019-03-04T22:47:53.962Z,69.37
2019-03-04T22:50:23.574Z,69.62
2019-03-04T22:52:54.441Z,69.64
2019-03-04T22:55:30.575Z,69.57
2019-03-04T22:57:59.863Z,69.87
2019-03-04T23:01:41.352Z,69.20
2019-03-04T23:04:47.375Z,68.94
2019-03-04T23:07:25.790Z,69.12
2019-03-04T23:10:13.161Z,70.02
2019-03-04T23:13:38.551Z,69.82
2019-03-04T23:16:08.892Z,69.40
2019-03-04T23:18:39.310Z,69.94
2019-03-04T23:21:08.531Z,70.47
2019-03-04T23:23:37.815Z,70.91
2019-03-04T23:26:07.041Z,70.68
2019-03-04T23:28:36.509Z,70.39
2019-03-04T23:31:05.764Z,70.89
2019-03-04T23:33:35.035Z,71.08
2019-03-04T23:36:04.275Z,71.23
2019-03-04T23:38:33.352Z,71.31
2019-03-04T23:41:03.542Z,71.48
2019-03-04T23:43:32.784Z,71.81
2019-03-04T23:46:02.023Z,71.79
2019-03-04T23:48:31.261Z,72.11
2019-03-04T23:51:00.474Z,72.31
2019-03-04T23:53:31.285Z,72.58
2019-03-04T23:56:00.540Z,73.22
2019-03-04T23:58:29.888Z,74.94
